KLM129 EHAM-DNMM
Flight info
| Callsign | KLM129 |
|---|---|
| Flight time | 6h 21m |
| Altitude | 23000 |
| Route | WOODY N872 CIV/N0470F350 N872 MEDIL DCT KOVIN DCT DUCRA DCT RESMI DCT DEKOD DCT DISAK DCT DIRMO/N0473F370 DCT ETAMO DCT ADEKA DCT MOKDI DCT MEN DCT BADAM DCT KANIG DCT KENAS DCT POS N855 GENIO DCT MOGIL UB31 ZEM/N0466F380 UZ333 KAHIL UB726 GHA/N0471F370 UA615 TMS/N0467F390 UA604 EREBO/N0473F380 DCT MIGNI UY333 KIGRA UB731 BUDSI BUDSI1N |
| Aircraft | A332/H-SDE3GHIJ2J3J5M1RVWXY/LB2D1 |
Departure
| Time | 2026-05-04 13:31 |
|---|---|
| Airport | Amsterdam Airport Schiphol (EHAM) |
Arrival
| Time | 2026-05-04 19:53 |
|---|---|
| Airport | Murtala Muhammed International Airport (DNMM) |
| Time | Latitude | Longitude | Altitude | Speed | Heading |
|---|---|---|---|---|---|
| 2026-05-04 12:53 | 52.31011 | 4.77020 | 11 ft | 0 kts | 179° |
| 2026-05-04 13:22 | 52.31020 | 4.77020 | 5 ft | 4 kts | 176° |
| 2026-05-04 13:22 | 52.31046 | 4.77013 | 6 ft | 4 kts | 169° |
| 2026-05-04 13:22 | 52.31071 | 4.77010 | 3 ft | 4 kts | 205° |
| 2026-05-04 13:23 | 52.31081 | 4.77027 | 5 ft | 4 kts | 259° |
| 2026-05-04 13:23 | 52.31081 | 4.77061 | 5 ft | 0 kts | 274° |
| 2026-05-04 13:25 | 52.31082 | 4.77031 | 5 ft | 4 kts | 273° |
| 2026-05-04 13:26 | 52.31084 | 4.76980 | -1 ft | 6 kts | 277° |
| 2026-05-04 13:26 | 52.31111 | 4.76927 | 2 ft | 6 kts | 336° |
| 2026-05-04 13:26 | 52.31148 | 4.76941 | 2 ft | 6 kts | 27° |
| 2026-05-04 13:26 | 52.31188 | 4.76980 | 2 ft | 7 kts | 32° |
| 2026-05-04 13:27 | 52.31236 | 4.77032 | 2 ft | 9 kts | 33° |
| 2026-05-04 13:27 | 52.31286 | 4.77093 | 2 ft | 8 kts | 54° |
| 2026-05-04 13:27 | 52.31295 | 4.77201 | 2 ft | 12 kts | 92° |
| 2026-05-04 13:27 | 52.31290 | 4.77343 | 3 ft | 12 kts | 93° |
| 2026-05-04 13:28 | 52.31282 | 4.77477 | 3 ft | 10 kts | 110° |
| 2026-05-04 13:28 | 52.31226 | 4.77503 | 3 ft | 11 kts | 180° |
| 2026-05-04 13:28 | 52.31129 | 4.77495 | 3 ft | 17 kts | 183° |
| 2026-05-04 13:28 | 52.30999 | 4.77483 | 3 ft | 20 kts | 184° |
| 2026-05-04 13:29 | 52.30862 | 4.77472 | 3 ft | 19 kts | 183° |
| 2026-05-04 13:29 | 52.30732 | 4.77459 | 3 ft | 18 kts | 183° |
| 2026-05-04 13:29 | 52.30616 | 4.77503 | 3 ft | 17 kts | 152° |
| 2026-05-04 13:29 | 52.30513 | 4.77591 | 2 ft | 17 kts | 152° |
| 2026-05-04 13:30 | 52.30440 | 4.77651 | 3 ft | 5 kts | 161° |
| 2026-05-04 13:30 | 52.30413 | 4.77628 | 2 ft | 6 kts | 222° |
| 2026-05-04 13:30 | 52.30381 | 4.77550 | 2 ft | 11 kts | 238° |
| 2026-05-04 13:30 | 52.30258 | 4.77231 | 0 ft | 63 kts | 238° |
| 2026-05-04 13:31 | 52.29923 | 4.76359 | 0 ft | 117 kts | 238° |
| 2026-05-04 13:31 | 52.29404 | 4.75009 | 3 ft | 162 kts | 238° |
| 2026-05-04 13:31 | 52.28751 | 4.73342 | 382 ft | 174 kts | 238° |
| 2026-05-04 13:31 | 52.28082 | 4.71729 | 1148 ft | 170 kts | 237° |
| 2026-05-04 13:32 | 52.27398 | 4.70127 | 1543 ft | 181 kts | 236° |
| 2026-05-04 13:32 | 52.26499 | 4.68596 | 1966 ft | 191 kts | 208° |
| 2026-05-04 13:32 | 52.25157 | 4.68018 | 2283 ft | 211 kts | 180° |
| 2026-05-04 13:32 | 52.23718 | 4.68655 | 2543 ft | 228 kts | 152° |
| 2026-05-04 13:33 | 52.22284 | 4.69996 | 2828 ft | 244 kts | 149° |
| 2026-05-04 13:33 | 52.20785 | 4.71452 | 3188 ft | 257 kts | 149° |
| 2026-05-04 13:33 | 52.19252 | 4.72961 | 3847 ft | 256 kts | 148° |
| 2026-05-04 13:33 | 52.17719 | 4.74453 | 4479 ft | 258 kts | 152° |
| 2026-05-04 13:34 | 52.16045 | 4.75480 | 5142 ft | 257 kts | 165° |
| 2026-05-04 13:34 | 52.14299 | 4.76110 | 5699 ft | 263 kts | 169° |
| 2026-05-04 13:34 | 52.12483 | 4.76711 | 6276 ft | 268 kts | 168° |
| 2026-05-04 13:34 | 52.10642 | 4.77365 | 6855 ft | 273 kts | 167° |
| 2026-05-04 13:35 | 52.08817 | 4.78041 | 7465 ft | 275 kts | 167° |
| 2026-05-04 13:35 | 52.05046 | 4.79476 | 8779 ft | 280 kts | 167° |
| 2026-05-04 13:35 | 52.03138 | 4.80207 | 9396 ft | 284 kts | 167° |
| 2026-05-04 13:36 | 52.01201 | 4.80951 | 10001 ft | 286 kts | 168° |
| 2026-05-04 13:36 | 51.99221 | 4.81368 | 10329 ft | 298 kts | 182° |
| 2026-05-04 13:36 | 51.97157 | 4.80594 | 10507 ft | 313 kts | 202° |
| 2026-05-04 13:36 | 51.95129 | 4.79094 | 10734 ft | 328 kts | 206° |
| 2026-05-04 13:37 | 51.93040 | 4.77420 | 10970 ft | 342 kts | 206° |
| 2026-05-04 13:37 | 51.90867 | 4.75676 | 11188 ft | 355 kts | 206° |
| 2026-05-04 13:37 | 51.88625 | 4.73896 | 11576 ft | 362 kts | 206° |
| 2026-05-04 13:37 | 51.87117 | 4.72706 | 11907 ft | 364 kts | 206° |
| 2026-05-04 13:38 | 51.84055 | 4.70301 | 12630 ft | 367 kts | 206° |
| 2026-05-04 13:38 | 51.81741 | 4.68491 | 13150 ft | 370 kts | 206° |
| 2026-05-04 13:38 | 51.79408 | 4.66674 | 13806 ft | 373 kts | 206° |
| 2026-05-04 13:38 | 51.77056 | 4.64847 | 14291 ft | 378 kts | 206° |
| 2026-05-04 13:39 | 51.74709 | 4.63021 | 14759 ft | 380 kts | 206° |
| 2026-05-04 13:39 | 51.72321 | 4.61165 | 15220 ft | 382 kts | 206° |
| 2026-05-04 13:39 | 51.69911 | 4.59295 | 15648 ft | 385 kts | 205° |
| 2026-05-04 13:39 | 51.67481 | 4.57414 | 16088 ft | 388 kts | 205° |
| 2026-05-04 13:40 | 51.65041 | 4.55527 | 16548 ft | 390 kts | 205° |
| 2026-05-04 13:40 | 51.62585 | 4.53633 | 16974 ft | 392 kts | 205° |
| 2026-05-04 13:40 | 51.60114 | 4.51727 | 17385 ft | 395 kts | 206° |
| 2026-05-04 13:40 | 51.57630 | 4.49801 | 17819 ft | 397 kts | 206° |
| 2026-05-04 13:41 | 51.55131 | 4.47868 | 18242 ft | 400 kts | 206° |
| 2026-05-04 13:41 | 51.52642 | 4.45951 | 18722 ft | 402 kts | 206° |
| 2026-05-04 13:41 | 51.50113 | 4.44001 | 19259 ft | 403 kts | 206° |
| 2026-05-04 13:42 | 51.45027 | 4.40102 | 20276 ft | 408 kts | 205° |
| 2026-05-04 13:42 | 51.42454 | 4.38141 | 20848 ft | 410 kts | 205° |
| 2026-05-04 13:42 | 51.39876 | 4.36171 | 21297 ft | 410 kts | 205° |
| 2026-05-04 13:42 | 51.37298 | 4.34201 | 21703 ft | 410 kts | 205° |
| 2026-05-04 13:43 | 51.34716 | 4.32227 | 22049 ft | 411 kts | 205° |
| 2026-05-04 13:43 | 51.32135 | 4.30255 | 22401 ft | 412 kts | 205° |
| 2026-05-04 13:43 | 51.29511 | 4.28380 | 22730 ft | 413 kts | 203° |
| 2026-05-04 13:43 | 51.26895 | 4.26627 | 23186 ft | 414 kts | 202° |
| 2026-05-04 13:44 | 51.24222 | 4.24872 | 23639 ft | 417 kts | 202° |
| 2026-05-04 13:44 | 51.21518 | 4.23112 | 23980 ft | 422 kts | 202° |
| 2026-05-04 13:44 | 51.18796 | 4.21339 | 24331 ft | 421 kts | 202° |
| 2026-05-04 13:44 | 51.16081 | 4.19591 | 24667 ft | 421 kts | 202° |
| 2026-05-04 13:45 | 51.13358 | 4.17846 | 24937 ft | 422 kts | 202° |
| 2026-05-04 13:45 | 51.10632 | 4.16099 | 25218 ft | 422 kts | 202° |
| 2026-05-04 13:45 | 51.07932 | 4.14365 | 25516 ft | 423 kts | 202° |
| 2026-05-04 13:45 | 51.05196 | 4.12604 | 25800 ft | 424 kts | 202° |
| 2026-05-04 13:46 | 51.02456 | 4.10842 | 26077 ft | 425 kts | 202° |
| 2026-05-04 13:46 | 50.99714 | 4.09078 | 26348 ft | 426 kts | 202° |
| 2026-05-04 13:46 | 50.96962 | 4.07308 | 26618 ft | 427 kts | 202° |
| 2026-05-04 13:46 | 50.94207 | 4.05541 | 26895 ft | 428 kts | 202° |
| 2026-05-04 13:47 | 50.91441 | 4.03769 | 27168 ft | 428 kts | 202° |
| 2026-05-04 13:47 | 50.88671 | 4.01996 | 27430 ft | 429 kts | 202° |
| 2026-05-04 13:47 | 50.85901 | 4.00225 | 27691 ft | 430 kts | 201° |
| 2026-05-04 13:47 | 50.83154 | 3.98472 | 27946 ft | 431 kts | 201° |
| 2026-05-04 13:48 | 50.80369 | 3.96696 | 28176 ft | 432 kts | 201° |
| 2026-05-04 13:48 | 50.77571 | 3.94913 | 28347 ft | 435 kts | 201° |
| 2026-05-04 13:48 | 50.74759 | 3.93124 | 28572 ft | 436 kts | 201° |
| 2026-05-04 13:48 | 50.71943 | 3.91336 | 28823 ft | 436 kts | 201° |
| 2026-05-04 13:49 | 50.69123 | 3.89546 | 29086 ft | 437 kts | 201° |
| 2026-05-04 13:49 | 50.66292 | 3.87753 | 29307 ft | 438 kts | 201° |
| 2026-05-04 13:49 | 50.63463 | 3.85963 | 29563 ft | 438 kts | 201° |
| 2026-05-04 13:49 | 50.60631 | 3.84174 | 29922 ft | 436 kts | 201° |
| 2026-05-04 13:50 | 50.58768 | 3.82998 | 30151 ft | 435 kts | 201° |
| 2026-05-04 13:50 | 50.55961 | 3.81229 | 30354 ft | 435 kts | 201° |
| 2026-05-04 13:50 | 50.53148 | 3.79458 | 30574 ft | 436 kts | 201° |
| 2026-05-04 13:50 | 50.49420 | 3.77114 | 31023 ft | 433 kts | 201° |
| 2026-05-04 13:51 | 50.47532 | 3.75928 | 31241 ft | 431 kts | 201° |
| 2026-05-04 13:51 | 50.44749 | 3.74183 | 31534 ft | 429 kts | 201° |
| 2026-05-04 13:51 | 50.42012 | 3.72468 | 31797 ft | 428 kts | 201° |
| 2026-05-04 13:51 | 50.39246 | 3.70738 | 32077 ft | 426 kts | 201° |
| 2026-05-04 13:52 | 50.33751 | 3.67289 | 32578 ft | 426 kts | 201° |
| 2026-05-04 13:52 | 50.31016 | 3.65492 | 32817 ft | 425 kts | 202° |
| 2026-05-04 13:52 | 50.28302 | 3.63663 | 33119 ft | 423 kts | 202° |
| 2026-05-04 13:53 | 50.25600 | 3.61825 | 33409 ft | 422 kts | 202° |
| 2026-05-04 13:53 | 50.22921 | 3.60001 | 33662 ft | 420 kts | 202° |
| 2026-05-04 13:53 | 50.20238 | 3.58181 | 33892 ft | 419 kts | 202° |
| 2026-05-04 13:54 | 50.14891 | 3.54574 | 34211 ft | 419 kts | 202° |
| 2026-05-04 13:54 | 50.12239 | 3.52792 | 34281 ft | 420 kts | 202° |
| 2026-05-04 13:54 | 50.06840 | 3.49179 | 34467 ft | 423 kts | 202° |
| 2026-05-04 13:55 | 50.04140 | 3.47375 | 34597 ft | 423 kts | 202° |
| 2026-05-04 13:55 | 49.98721 | 3.43757 | 34891 ft | 424 kts | 202° |
| 2026-05-04 13:55 | 49.96003 | 3.41940 | 34961 ft | 427 kts | 202° |
| 2026-05-04 13:56 | 49.90528 | 3.38300 | 34974 ft | 428 kts | 202° |
| 2026-05-04 13:57 | 49.82348 | 3.32889 | 34973 ft | 429 kts | 202° |
| 2026-05-04 13:58 | 49.71345 | 3.25635 | 34975 ft | 429 kts | 202° |
| 2026-05-04 13:58 | 49.63090 | 3.20214 | 34978 ft | 430 kts | 202° |
| 2026-05-04 13:59 | 49.57583 | 3.16609 | 34976 ft | 430 kts | 202° |
| 2026-05-04 14:00 | 49.49347 | 3.11111 | 34974 ft | 430 kts | 206° |
| 2026-05-04 14:00 | 49.41740 | 3.03863 | 34967 ft | 431 kts | 212° |
| 2026-05-04 14:01 | 49.36734 | 2.98755 | 34964 ft | 431 kts | 212° |
| 2026-05-04 14:02 | 49.29237 | 2.91118 | 34962 ft | 431 kts | 212° |
| 2026-05-04 14:02 | 49.24262 | 2.86093 | 34961 ft | 431 kts | 212° |
| 2026-05-04 14:03 | 49.19256 | 2.81057 | 34959 ft | 430 kts | 211° |
| 2026-05-04 14:03 | 49.14245 | 2.76030 | 34962 ft | 430 kts | 211° |
| 2026-05-04 14:04 | 49.06751 | 2.68532 | 34964 ft | 430 kts | 211° |
| 2026-05-04 14:04 | 49.01737 | 2.63530 | 34990 ft | 430 kts | 211° |
| 2026-05-04 14:05 | 48.94207 | 2.55970 | 34964 ft | 432 kts | 212° |
| 2026-05-04 14:06 | 48.89209 | 2.50984 | 34965 ft | 432 kts | 212° |
| 2026-05-04 14:06 | 48.84169 | 2.45993 | 34968 ft | 432 kts | 211° |
| 2026-05-04 14:07 | 48.79123 | 2.41015 | 34969 ft | 432 kts | 211° |
| 2026-05-04 14:07 | 48.74101 | 2.36072 | 34963 ft | 432 kts | 211° |
| 2026-05-04 14:08 | 48.69052 | 2.31115 | 34966 ft | 431 kts | 211° |
| 2026-05-04 14:08 | 48.64021 | 2.26189 | 34968 ft | 430 kts | 211° |
| 2026-05-04 14:09 | 48.56349 | 2.19526 | 34960 ft | 428 kts | 200° |
| 2026-05-04 14:10 | 48.47743 | 2.16118 | 34956 ft | 428 kts | 192° |
| 2026-05-04 14:10 | 48.41902 | 2.14287 | 34956 ft | 429 kts | 192° |
| 2026-05-04 14:11 | 48.36033 | 2.12455 | 34952 ft | 430 kts | 192° |
| 2026-05-04 14:11 | 48.27180 | 2.10553 | 34952 ft | 431 kts | 179° |
| 2026-05-04 14:12 | 48.21218 | 2.11396 | 34953 ft | 433 kts | 174° |
| 2026-05-04 14:13 | 48.12245 | 2.13099 | 34948 ft | 433 kts | 177° |
| 2026-05-04 14:13 | 48.06294 | 2.13604 | 34965 ft | 431 kts | 179° |
| 2026-05-04 14:14 | 48.00315 | 2.13966 | 34962 ft | 430 kts | 179° |
| 2026-05-04 14:14 | 47.91334 | 2.14466 | 34965 ft | 431 kts | 179° |
| 2026-05-04 14:15 | 47.79351 | 2.15160 | 34947 ft | 431 kts | 179° |
| 2026-05-04 14:16 | 47.70391 | 2.15683 | 34940 ft | 432 kts | 179° |
| 2026-05-04 14:17 | 47.61382 | 2.16207 | 34938 ft | 432 kts | 179° |
| 2026-05-04 14:18 | 47.52373 | 2.16732 | 34939 ft | 432 kts | 179° |
| 2026-05-04 14:19 | 47.40361 | 2.17440 | 34938 ft | 432 kts | 179° |
| 2026-05-04 14:19 | 47.34359 | 2.17786 | 34936 ft | 432 kts | 180° |
| 2026-05-04 14:20 | 47.28389 | 2.18129 | 34939 ft | 431 kts | 180° |
| 2026-05-04 14:20 | 47.22394 | 2.18474 | 34938 ft | 431 kts | 180° |
| 2026-05-04 14:21 | 47.13443 | 2.18986 | 34935 ft | 431 kts | 180° |
| 2026-05-04 14:21 | 47.07491 | 2.20304 | 34942 ft | 436 kts | 166° |
| 2026-05-04 14:22 | 47.01782 | 2.23276 | 34944 ft | 438 kts | 162° |
| 2026-05-04 14:22 | 46.96117 | 2.26607 | 34946 ft | 439 kts | 161° |
| 2026-05-04 14:23 | 46.87628 | 2.31642 | 34945 ft | 439 kts | 162° |
| 2026-05-04 14:24 | 46.82140 | 2.35635 | 34943 ft | 444 kts | 153° |
| 2026-05-04 14:24 | 46.76914 | 2.40447 | 34943 ft | 445 kts | 151° |
| 2026-05-04 14:25 | 46.71737 | 2.45409 | 34933 ft | 445 kts | 151° |
| 2026-05-04 14:25 | 46.63961 | 2.52848 | 34940 ft | 446 kts | 151° |
| 2026-05-04 14:26 | 46.58763 | 2.57775 | 34941 ft | 446 kts | 152° |
| 2026-05-04 14:26 | 46.53568 | 2.62681 | 34939 ft | 446 kts | 152° |
| 2026-05-04 14:27 | 46.48362 | 2.67586 | 34941 ft | 446 kts | 152° |
| 2026-05-04 14:27 | 46.43148 | 2.72487 | 34944 ft | 447 kts | 152° |
| 2026-05-04 14:28 | 46.37929 | 2.77382 | 34947 ft | 446 kts | 152° |
| 2026-05-04 14:28 | 46.32747 | 2.82232 | 34936 ft | 447 kts | 152° |
| 2026-05-04 14:29 | 46.22268 | 2.92004 | 34954 ft | 449 kts | 152° |
| 2026-05-04 14:30 | 46.17015 | 2.96887 | 34954 ft | 449 kts | 152° |
| 2026-05-04 14:31 | 46.09137 | 3.04189 | 34954 ft | 449 kts | 153° |
| 2026-05-04 14:32 | 45.98612 | 3.13844 | 34941 ft | 446 kts | 156° |
| 2026-05-04 14:32 | 45.92942 | 3.17143 | 34932 ft | 435 kts | 172° |
| 2026-05-04 14:33 | 45.86975 | 3.18008 | 34930 ft | 430 kts | 182° |
| 2026-05-04 14:33 | 45.80991 | 3.17973 | 34943 ft | 430 kts | 185° |
| 2026-05-04 14:34 | 45.75046 | 3.17806 | 34946 ft | 430 kts | 185° |
| 2026-05-04 14:34 | 45.69059 | 3.17674 | 34957 ft | 430 kts | 184° |
| 2026-05-04 14:35 | 45.63086 | 3.17580 | 34958 ft | 430 kts | 184° |
| 2026-05-04 14:35 | 45.57126 | 3.17503 | 34960 ft | 429 kts | 184° |
| 2026-05-04 14:36 | 45.51139 | 3.17427 | 34957 ft | 429 kts | 184° |
| 2026-05-04 14:36 | 45.45195 | 3.17349 | 34962 ft | 429 kts | 184° |
| 2026-05-04 14:37 | 45.40230 | 3.17283 | 34965 ft | 429 kts | 184° |
| 2026-05-04 14:37 | 45.34251 | 3.17205 | 34961 ft | 429 kts | 185° |
| 2026-05-04 14:38 | 45.28283 | 3.17122 | 34968 ft | 429 kts | 185° |
| 2026-05-04 14:38 | 45.22319 | 3.17041 | 34969 ft | 428 kts | 184° |
| 2026-05-04 14:39 | 45.16354 | 3.16965 | 34969 ft | 428 kts | 185° |
| 2026-05-04 14:39 | 45.10394 | 3.16889 | 34973 ft | 428 kts | 185° |
| 2026-05-04 14:40 | 45.01514 | 3.16773 | 34976 ft | 427 kts | 185° |
| 2026-05-04 14:40 | 44.95576 | 3.16695 | 34981 ft | 427 kts | 185° |
| 2026-05-04 14:41 | 44.89624 | 3.16618 | 34979 ft | 427 kts | 185° |
| 2026-05-04 14:42 | 44.77742 | 3.16462 | 34982 ft | 427 kts | 185° |
| 2026-05-04 14:42 | 44.71804 | 3.16384 | 34983 ft | 427 kts | 185° |
| 2026-05-04 14:43 | 44.65861 | 3.16307 | 34982 ft | 427 kts | 185° |
| 2026-05-04 14:43 | 44.59916 | 3.16245 | 34982 ft | 427 kts | 185° |
| 2026-05-04 14:44 | 44.53962 | 3.16310 | 34983 ft | 428 kts | 184° |
| 2026-05-04 14:44 | 44.48009 | 3.16423 | 34981 ft | 428 kts | 184° |
| 2026-05-04 14:45 | 44.42093 | 3.16530 | 34979 ft | 428 kts | 184° |
| 2026-05-04 14:45 | 44.36132 | 3.16630 | 34973 ft | 428 kts | 184° |
| 2026-05-04 14:46 | 44.30188 | 3.16724 | 34979 ft | 427 kts | 184° |
| 2026-05-04 14:46 | 44.24253 | 3.16815 | 34982 ft | 427 kts | 184° |
| 2026-05-04 14:47 | 44.18322 | 3.16908 | 34977 ft | 427 kts | 184° |
| 2026-05-04 14:47 | 44.12392 | 3.16999 | 34982 ft | 426 kts | 185° |
| 2026-05-04 14:48 | 44.06494 | 3.16768 | 34973 ft | 423 kts | 189° |
| 2026-05-04 14:48 | 44.00634 | 3.16130 | 34968 ft | 422 kts | 189° |
| 2026-05-04 14:49 | 43.94782 | 3.15420 | 34969 ft | 421 kts | 189° |
| 2026-05-04 14:49 | 43.88941 | 3.14709 | 34970 ft | 421 kts | 189° |
| 2026-05-04 14:50 | 43.83102 | 3.14009 | 34967 ft | 421 kts | 189° |
| 2026-05-04 14:50 | 43.77264 | 3.13316 | 34956 ft | 421 kts | 189° |
| 2026-05-04 14:51 | 43.71457 | 3.12631 | 34971 ft | 422 kts | 189° |
| 2026-05-04 14:51 | 43.65598 | 3.11931 | 34958 ft | 422 kts | 189° |
| 2026-05-04 14:52 | 43.59745 | 3.11247 | 34954 ft | 422 kts | 189° |
| 2026-05-04 14:52 | 43.53885 | 3.10556 | 34958 ft | 423 kts | 190° |
| 2026-05-04 14:53 | 43.48013 | 3.09863 | 34959 ft | 423 kts | 190° |
| 2026-05-04 14:53 | 43.42143 | 3.09176 | 34959 ft | 424 kts | 189° |
| 2026-05-04 14:54 | 43.36265 | 3.08488 | 34951 ft | 423 kts | 190° |
| 2026-05-04 14:54 | 43.30391 | 3.07801 | 34956 ft | 424 kts | 190° |
| 2026-05-04 14:55 | 43.24550 | 3.07120 | 34952 ft | 424 kts | 190° |
| 2026-05-04 14:55 | 43.18637 | 3.06432 | 34928 ft | 424 kts | 190° |
| 2026-05-04 14:56 | 43.12786 | 3.05751 | 34942 ft | 425 kts | 189° |
| 2026-05-04 14:56 | 43.06882 | 3.05066 | 34948 ft | 425 kts | 190° |
| 2026-05-04 14:57 | 43.01002 | 3.04389 | 34935 ft | 423 kts | 190° |
| 2026-05-04 14:57 | 42.95133 | 3.03712 | 34936 ft | 422 kts | 190° |
| 2026-05-04 14:58 | 42.89286 | 3.03038 | 34933 ft | 421 kts | 190° |
| 2026-05-04 14:58 | 42.83452 | 3.02365 | 34937 ft | 421 kts | 190° |
| 2026-05-04 14:59 | 42.77608 | 3.01693 | 34938 ft | 421 kts | 190° |
| 2026-05-04 15:00 | 42.68899 | 3.00695 | 34939 ft | 421 kts | 190° |
| 2026-05-04 15:00 | 42.63064 | 3.00028 | 34937 ft | 421 kts | 190° |
| 2026-05-04 15:01 | 42.54305 | 2.99030 | 34931 ft | 421 kts | 190° |
| 2026-05-04 15:01 | 42.48450 | 2.98460 | 34925 ft | 425 kts | 186° |
| 2026-05-04 15:02 | 42.42511 | 2.98733 | 34920 ft | 428 kts | 183° |
| 2026-05-04 15:02 | 42.36559 | 2.99211 | 34885 ft | 428 kts | 183° |
| 2026-05-04 15:03 | 42.30615 | 2.99724 | 34914 ft | 428 kts | 183° |
| 2026-05-04 15:03 | 42.24730 | 3.00218 | 34914 ft | 427 kts | 183° |
| 2026-05-04 15:04 | 42.18796 | 3.00704 | 34916 ft | 427 kts | 183° |
| 2026-05-04 15:04 | 42.12864 | 3.01186 | 34913 ft | 426 kts | 184° |
| 2026-05-04 15:05 | 42.06955 | 3.01666 | 34910 ft | 424 kts | 184° |
| 2026-05-04 15:05 | 42.01070 | 3.02141 | 34913 ft | 424 kts | 184° |
| 2026-05-04 15:06 | 41.95181 | 3.02615 | 34914 ft | 424 kts | 184° |
| 2026-05-04 15:07 | 41.86378 | 3.03329 | 34916 ft | 421 kts | 184° |
| 2026-05-04 15:07 | 41.80528 | 3.03799 | 34918 ft | 421 kts | 184° |
| 2026-05-04 15:08 | 41.74717 | 3.04262 | 34913 ft | 421 kts | 184° |
| 2026-05-04 15:08 | 41.68878 | 3.04729 | 34916 ft | 420 kts | 184° |
| 2026-05-04 15:09 | 41.63051 | 3.05195 | 34921 ft | 420 kts | 184° |
| 2026-05-04 15:09 | 41.57210 | 3.05660 | 34923 ft | 420 kts | 184° |
| 2026-05-04 15:10 | 41.48442 | 3.06357 | 34919 ft | 421 kts | 184° |
| 2026-05-04 15:11 | 41.39667 | 3.07055 | 34922 ft | 421 kts | 184° |
| 2026-05-04 15:11 | 41.33816 | 3.07519 | 34922 ft | 421 kts | 184° |
| 2026-05-04 15:12 | 41.27966 | 3.07982 | 34923 ft | 421 kts | 184° |
| 2026-05-04 15:12 | 41.22114 | 3.08443 | 34925 ft | 421 kts | 184° |
| 2026-05-04 15:13 | 41.16253 | 3.08905 | 34932 ft | 421 kts | 184° |
| 2026-05-04 15:13 | 41.10400 | 3.09366 | 34925 ft | 421 kts | 184° |
| 2026-05-04 15:14 | 41.04580 | 3.09823 | 34930 ft | 421 kts | 184° |
| 2026-05-04 15:14 | 40.98724 | 3.10282 | 34926 ft | 421 kts | 184° |
| 2026-05-04 15:15 | 40.92868 | 3.10740 | 34928 ft | 421 kts | 184° |
| 2026-05-04 15:15 | 40.87008 | 3.11198 | 34924 ft | 421 kts | 184° |
| 2026-05-04 15:16 | 40.78250 | 3.11880 | 34931 ft | 422 kts | 184° |
| 2026-05-04 15:17 | 40.69455 | 3.12564 | 34933 ft | 422 kts | 184° |
| 2026-05-04 15:17 | 40.60663 | 3.13246 | 34932 ft | 422 kts | 184° |
| 2026-05-04 15:18 | 40.54835 | 3.13696 | 34930 ft | 421 kts | 184° |
| 2026-05-04 15:19 | 40.46085 | 3.13895 | 34930 ft | 417 kts | 188° |
| 2026-05-04 15:19 | 40.37380 | 3.13513 | 34930 ft | 417 kts | 188° |
| 2026-05-04 15:20 | 40.31578 | 3.13232 | 34933 ft | 417 kts | 188° |
| 2026-05-04 15:20 | 40.25771 | 3.12959 | 34933 ft | 417 kts | 188° |
| 2026-05-04 15:21 | 40.19963 | 3.12693 | 34913 ft | 417 kts | 188° |
| 2026-05-04 15:22 | 40.11249 | 3.12295 | 34931 ft | 420 kts | 188° |
| 2026-05-04 15:22 | 40.02511 | 3.11899 | 34934 ft | 420 kts | 188° |
| 2026-05-04 15:23 | 39.96661 | 3.11634 | 34929 ft | 420 kts | 188° |
| 2026-05-04 15:23 | 39.90785 | 3.11442 | 34938 ft | 424 kts | 187° |
| 2026-05-04 15:24 | 39.78992 | 3.11710 | 34941 ft | 425 kts | 186° |
| 2026-05-04 15:25 | 39.73056 | 3.11859 | 34939 ft | 426 kts | 186° |
| 2026-05-04 15:26 | 39.65130 | 3.12026 | 34944 ft | 428 kts | 186° |
| 2026-05-04 15:26 | 39.56191 | 3.12207 | 34948 ft | 428 kts | 186° |
| 2026-05-04 15:27 | 39.47284 | 3.12389 | 34949 ft | 429 kts | 185° |
| 2026-05-04 15:28 | 39.38328 | 3.12571 | 34952 ft | 429 kts | 185° |
| 2026-05-04 15:29 | 39.29365 | 3.12753 | 34943 ft | 429 kts | 185° |
| 2026-05-04 15:30 | 39.08456 | 3.13177 | 34956 ft | 430 kts | 185° |
| 2026-05-04 15:31 | 38.99495 | 3.13363 | 34962 ft | 432 kts | 185° |
| 2026-05-04 15:32 | 38.84474 | 3.13669 | 34948 ft | 432 kts | 185° |
| 2026-05-04 15:34 | 38.69406 | 3.13970 | 34977 ft | 434 kts | 185° |
| 2026-05-04 15:34 | 38.60368 | 3.14151 | 34962 ft | 434 kts | 185° |
| 2026-05-04 15:35 | 38.51303 | 3.14334 | 34977 ft | 434 kts | 185° |
| 2026-05-04 15:36 | 38.42225 | 3.14517 | 34980 ft | 434 kts | 185° |
| 2026-05-04 15:36 | 38.36218 | 3.14638 | 34980 ft | 434 kts | 185° |
| 2026-05-04 15:37 | 38.30163 | 3.14916 | 34981 ft | 439 kts | 180° |
| 2026-05-04 15:37 | 38.24113 | 3.16485 | 34985 ft | 446 kts | 173° |
| 2026-05-04 15:38 | 38.18098 | 3.18470 | 34983 ft | 447 kts | 172° |
| 2026-05-04 15:38 | 38.12082 | 3.20497 | 34980 ft | 447 kts | 173° |
| 2026-05-04 15:39 | 38.06013 | 3.22274 | 34994 ft | 447 kts | 174° |
| 2026-05-04 15:40 | 37.96889 | 3.24780 | 34988 ft | 447 kts | 174° |
| 2026-05-04 15:40 | 37.90845 | 3.26452 | 34975 ft | 447 kts | 174° |
| 2026-05-04 15:41 | 37.84748 | 3.28148 | 34995 ft | 450 kts | 174° |
| 2026-05-04 15:41 | 37.78619 | 3.29856 | 34996 ft | 450 kts | 174° |
| 2026-05-04 15:42 | 37.72496 | 3.31562 | 34992 ft | 450 kts | 174° |
| 2026-05-04 15:42 | 37.66400 | 3.33255 | 34970 ft | 450 kts | 174° |
| 2026-05-04 15:43 | 37.60267 | 3.34955 | 34994 ft | 452 kts | 174° |
| 2026-05-04 15:43 | 37.54119 | 3.36656 | 34999 ft | 452 kts | 174° |
| 2026-05-04 15:44 | 37.47966 | 3.38356 | 34999 ft | 452 kts | 174° |
| 2026-05-04 15:44 | 37.41817 | 3.40052 | 34978 ft | 452 kts | 175° |
| 2026-05-04 15:45 | 37.35655 | 3.41748 | 34999 ft | 454 kts | 175° |
| 2026-05-04 15:45 | 37.29516 | 3.43435 | 35000 ft | 454 kts | 175° |
| 2026-05-04 15:46 | 37.23342 | 3.45130 | 35001 ft | 454 kts | 175° |
| 2026-05-04 15:46 | 37.17163 | 3.46823 | 34985 ft | 454 kts | 175° |
| 2026-05-04 15:47 | 37.10964 | 3.48517 | 35001 ft | 456 kts | 175° |
| 2026-05-04 15:47 | 37.04796 | 3.50200 | 35204 ft | 456 kts | 175° |
| 2026-05-04 15:47 | 37.01699 | 3.51046 | 35387 ft | 455 kts | 175° |
| 2026-05-04 15:48 | 36.98608 | 3.51889 | 35565 ft | 454 kts | 175° |
| 2026-05-04 15:48 | 36.95512 | 3.52733 | 35726 ft | 454 kts | 175° |
| 2026-05-04 15:48 | 36.89300 | 3.54418 | 35793 ft | 459 kts | 175° |
| 2026-05-04 15:49 | 36.86218 | 3.55253 | 35902 ft | 459 kts | 175° |
| 2026-05-04 15:49 | 36.83090 | 3.56102 | 36083 ft | 459 kts | 175° |
| 2026-05-04 15:49 | 36.79964 | 3.56945 | 36245 ft | 457 kts | 176° |
| 2026-05-04 15:49 | 36.76838 | 3.57652 | 36407 ft | 454 kts | 179° |
| 2026-05-04 15:50 | 36.73718 | 3.58234 | 36563 ft | 452 kts | 180° |
| 2026-05-04 15:50 | 36.70609 | 3.58753 | 36710 ft | 451 kts | 180° |
| 2026-05-04 15:50 | 36.64364 | 3.59757 | 36813 ft | 454 kts | 181° |
| 2026-05-04 15:51 | 36.61233 | 3.60274 | 36947 ft | 454 kts | 180° |
| 2026-05-04 15:51 | 36.58138 | 3.60796 | 36998 ft | 455 kts | 180° |
| 2026-05-04 15:51 | 36.51866 | 3.61877 | 36993 ft | 454 kts | 180° |
| 2026-05-04 15:52 | 36.45612 | 3.62965 | 36988 ft | 453 kts | 180° |
| 2026-05-04 15:52 | 36.39358 | 3.64049 | 36989 ft | 454 kts | 180° |
| 2026-05-04 15:53 | 36.33085 | 3.65129 | 36994 ft | 455 kts | 180° |
| 2026-05-04 15:53 | 36.26806 | 3.66211 | 36993 ft | 455 kts | 180° |
| 2026-05-04 15:54 | 36.20565 | 3.67285 | 36992 ft | 455 kts | 180° |
| 2026-05-04 15:54 | 36.14275 | 3.68364 | 36989 ft | 456 kts | 180° |
| 2026-05-04 15:55 | 36.07975 | 3.69442 | 36984 ft | 457 kts | 180° |
| 2026-05-04 15:55 | 36.01658 | 3.70522 | 36994 ft | 458 kts | 180° |
| 2026-05-04 15:56 | 35.95384 | 3.71596 | 36986 ft | 457 kts | 180° |
| 2026-05-04 15:56 | 35.89059 | 3.72676 | 36979 ft | 457 kts | 180° |
| 2026-05-04 15:57 | 35.82749 | 3.73751 | 36981 ft | 458 kts | 180° |
| 2026-05-04 15:57 | 35.76469 | 3.74819 | 36974 ft | 458 kts | 180° |
| 2026-05-04 15:58 | 35.70151 | 3.75892 | 36975 ft | 457 kts | 180° |
| 2026-05-04 15:58 | 35.63820 | 3.76964 | 36965 ft | 460 kts | 180° |
| 2026-05-04 15:59 | 35.57502 | 3.78033 | 36961 ft | 461 kts | 180° |
| 2026-05-04 15:59 | 35.51140 | 3.79110 | 36960 ft | 461 kts | 180° |
| 2026-05-04 16:00 | 35.44775 | 3.80185 | 36960 ft | 461 kts | 180° |
| 2026-05-04 16:00 | 35.38448 | 3.81252 | 36970 ft | 462 kts | 179° |
| 2026-05-04 16:01 | 35.32067 | 3.82325 | 36976 ft | 463 kts | 179° |
| 2026-05-04 16:01 | 35.25684 | 3.83398 | 36978 ft | 463 kts | 179° |
| 2026-05-04 16:02 | 35.19300 | 3.84470 | 36973 ft | 463 kts | 179° |
| 2026-05-04 16:03 | 35.09730 | 3.86072 | 36970 ft | 463 kts | 179° |
| 2026-05-04 16:03 | 35.03372 | 3.87134 | 36977 ft | 464 kts | 179° |
| 2026-05-04 16:04 | 34.96966 | 3.88203 | 36985 ft | 464 kts | 179° |
| 2026-05-04 16:04 | 34.87394 | 3.89796 | 36999 ft | 465 kts | 179° |
| 2026-05-04 16:05 | 34.80971 | 3.90862 | 36998 ft | 466 kts | 179° |
| 2026-05-04 16:06 | 34.71327 | 3.92463 | 36993 ft | 466 kts | 179° |
| 2026-05-04 16:07 | 34.58506 | 3.94584 | 37006 ft | 466 kts | 179° |
| 2026-05-04 16:08 | 34.45624 | 3.96707 | 36999 ft | 467 kts | 179° |
| 2026-05-04 16:09 | 34.29500 | 3.99358 | 36989 ft | 468 kts | 179° |
| 2026-05-04 16:10 | 34.16633 | 4.01464 | 36984 ft | 468 kts | 179° |
| 2026-05-04 16:11 | 34.07011 | 4.02104 | 36979 ft | 455 kts | 191° |
| 2026-05-04 16:11 | 34.03860 | 4.01749 | 36976 ft | 454 kts | 193° |
| 2026-05-04 16:12 | 33.85102 | 3.98941 | 36977 ft | 454 kts | 193° |
| 2026-05-04 16:13 | 33.72549 | 3.97092 | 36981 ft | 454 kts | 193° |
| 2026-05-04 16:14 | 33.61044 | 3.95408 | 36961 ft | 455 kts | 193° |
| 2026-05-04 16:16 | 33.45305 | 3.93111 | 36973 ft | 455 kts | 193° |
| 2026-05-04 16:17 | 33.29617 | 3.90829 | 36979 ft | 455 kts | 193° |
| 2026-05-04 16:18 | 33.17075 | 3.89010 | 36973 ft | 455 kts | 193° |
| 2026-05-04 16:19 | 33.01334 | 3.86733 | 36971 ft | 456 kts | 193° |
| 2026-05-04 16:20 | 32.85639 | 3.84457 | 36966 ft | 456 kts | 193° |
| 2026-05-04 16:22 | 32.69921 | 3.82185 | 36973 ft | 456 kts | 193° |
| 2026-05-04 16:23 | 32.51002 | 3.79461 | 37036 ft | 457 kts | 194° |
| 2026-05-04 16:24 | 32.38322 | 3.78162 | 37047 ft | 467 kts | 182° |
| 2026-05-04 16:25 | 32.31814 | 3.79091 | 36952 ft | 472 kts | 178° |
| 2026-05-04 16:26 | 32.09053 | 3.83376 | 36945 ft | 473 kts | 178° |
| 2026-05-04 16:28 | 31.92818 | 3.86353 | 36942 ft | 474 kts | 178° |
| 2026-05-04 16:29 | 31.70003 | 3.90525 | 36942 ft | 474 kts | 178° |
| 2026-05-04 16:31 | 31.53724 | 3.93488 | 36933 ft | 475 kts | 178° |
| 2026-05-04 16:32 | 31.34113 | 3.97045 | 36930 ft | 475 kts | 178° |
| 2026-05-04 16:33 | 31.21078 | 3.99401 | 36927 ft | 475 kts | 178° |
| 2026-05-04 16:34 | 31.11258 | 4.01171 | 36919 ft | 475 kts | 179° |
| 2026-05-04 16:35 | 30.91638 | 4.04698 | 36916 ft | 475 kts | 179° |
| 2026-05-04 16:36 | 30.81861 | 4.06449 | 36913 ft | 475 kts | 179° |
| 2026-05-04 16:37 | 30.72053 | 4.08202 | 36916 ft | 475 kts | 179° |
| 2026-05-04 16:38 | 30.58974 | 4.10535 | 36913 ft | 475 kts | 179° |
| 2026-05-04 16:39 | 30.42659 | 4.13435 | 36900 ft | 475 kts | 179° |
| 2026-05-04 16:40 | 30.29570 | 4.15756 | 36899 ft | 475 kts | 179° |
| 2026-05-04 16:41 | 30.13252 | 4.18640 | 36900 ft | 475 kts | 179° |
| 2026-05-04 16:43 | 29.96931 | 4.21515 | 36908 ft | 475 kts | 179° |
| 2026-05-04 16:43 | 29.87111 | 4.23240 | 36899 ft | 475 kts | 179° |
| 2026-05-04 16:45 | 29.67518 | 4.26680 | 36895 ft | 476 kts | 179° |
| 2026-05-04 16:46 | 29.51193 | 4.29593 | 36892 ft | 476 kts | 179° |
| 2026-05-04 16:47 | 29.38091 | 4.31920 | 36888 ft | 476 kts | 179° |
| 2026-05-04 16:48 | 29.25010 | 4.34242 | 36898 ft | 476 kts | 179° |
| 2026-05-04 16:49 | 29.11897 | 4.36556 | 36894 ft | 477 kts | 180° |
| 2026-05-04 16:50 | 28.98803 | 4.38862 | 36892 ft | 477 kts | 180° |
| 2026-05-04 16:51 | 28.88962 | 4.40594 | 36889 ft | 477 kts | 180° |
| 2026-05-04 16:52 | 28.75827 | 4.42898 | 36884 ft | 477 kts | 180° |
| 2026-05-04 16:53 | 28.66004 | 4.44618 | 36885 ft | 477 kts | 180° |
| 2026-05-04 16:54 | 28.52866 | 4.46913 | 36890 ft | 477 kts | 180° |
| 2026-05-04 16:55 | 28.33168 | 4.50429 | 36887 ft | 478 kts | 180° |
| 2026-05-04 16:56 | 28.16744 | 4.53365 | 36873 ft | 480 kts | 180° |
| 2026-05-04 16:57 | 28.06832 | 4.55133 | 36870 ft | 480 kts | 180° |
| 2026-05-04 16:58 | 27.93653 | 4.57477 | 36871 ft | 481 kts | 180° |
| 2026-05-04 17:00 | 27.74826 | 4.60815 | 36867 ft | 484 kts | 180° |
| 2026-05-04 17:01 | 27.58219 | 4.63753 | 36859 ft | 483 kts | 180° |
| 2026-05-04 17:02 | 27.44917 | 4.66097 | 36856 ft | 484 kts | 180° |
| 2026-05-04 17:03 | 27.34934 | 4.67853 | 36856 ft | 484 kts | 180° |
| 2026-05-04 17:03 | 27.24983 | 4.69600 | 36852 ft | 484 kts | 180° |
| 2026-05-04 17:04 | 27.11663 | 4.71935 | 36841 ft | 484 kts | 180° |
| 2026-05-04 17:05 | 26.98353 | 4.74260 | 36839 ft | 485 kts | 180° |
| 2026-05-04 17:06 | 26.88339 | 4.76007 | 36840 ft | 485 kts | 180° |
| 2026-05-04 17:07 | 26.79451 | 4.77556 | 36840 ft | 485 kts | 180° |
| 2026-05-04 17:07 | 26.71645 | 4.78913 | 36837 ft | 485 kts | 179° |
| 2026-05-04 17:08 | 26.61662 | 4.80647 | 36838 ft | 486 kts | 179° |
| 2026-05-04 17:09 | 26.54969 | 4.81807 | 36838 ft | 486 kts | 179° |
| 2026-05-04 17:09 | 26.48284 | 4.82964 | 36818 ft | 486 kts | 179° |
| 2026-05-04 17:10 | 26.31579 | 4.85850 | 36839 ft | 487 kts | 179° |
| 2026-05-04 17:11 | 26.24881 | 4.87005 | 36840 ft | 487 kts | 179° |
| 2026-05-04 17:12 | 26.14823 | 4.88738 | 36840 ft | 488 kts | 179° |
| 2026-05-04 17:13 | 25.98096 | 4.91610 | 36845 ft | 488 kts | 179° |
| 2026-05-04 17:14 | 25.84660 | 4.93912 | 36839 ft | 488 kts | 178° |
| 2026-05-04 17:15 | 25.74590 | 4.95634 | 36848 ft | 488 kts | 178° |
| 2026-05-04 17:16 | 25.61143 | 4.97928 | 36849 ft | 489 kts | 178° |
| 2026-05-04 17:17 | 25.47729 | 5.00212 | 36849 ft | 489 kts | 178° |
| 2026-05-04 17:18 | 25.34282 | 5.02497 | 36844 ft | 489 kts | 178° |
| 2026-05-04 17:19 | 25.20861 | 5.04771 | 36837 ft | 489 kts | 178° |
| 2026-05-04 17:20 | 25.07415 | 5.07046 | 36841 ft | 489 kts | 178° |
| 2026-05-04 17:20 | 24.97318 | 5.08750 | 36852 ft | 489 kts | 178° |
| 2026-05-04 17:21 | 24.83911 | 5.11009 | 36856 ft | 488 kts | 178° |
| 2026-05-04 17:22 | 24.77186 | 5.12140 | 36856 ft | 488 kts | 178° |
| 2026-05-04 17:23 | 24.63742 | 5.14397 | 36864 ft | 488 kts | 178° |
| 2026-05-04 17:24 | 24.53689 | 5.16082 | 36866 ft | 488 kts | 178° |
| 2026-05-04 17:25 | 24.40239 | 5.18331 | 36884 ft | 488 kts | 178° |
| 2026-05-04 17:26 | 24.26830 | 5.20569 | 36887 ft | 488 kts | 178° |
| 2026-05-04 17:27 | 24.10048 | 5.23364 | 36881 ft | 487 kts | 178° |
| 2026-05-04 17:28 | 23.96662 | 5.25587 | 36863 ft | 487 kts | 178° |
| 2026-05-04 17:29 | 23.76584 | 5.28914 | 36871 ft | 487 kts | 178° |
| 2026-05-04 17:31 | 23.59857 | 5.31677 | 36877 ft | 486 kts | 178° |
| 2026-05-04 17:32 | 23.43182 | 5.34425 | 36912 ft | 485 kts | 178° |
| 2026-05-04 17:33 | 23.29815 | 5.36622 | 36914 ft | 484 kts | 178° |
| 2026-05-04 17:34 | 23.16535 | 5.38802 | 36923 ft | 483 kts | 178° |
| 2026-05-04 17:35 | 22.99891 | 5.41526 | 37030 ft | 483 kts | 178° |
| 2026-05-04 17:36 | 22.93247 | 5.42612 | 37105 ft | 482 kts | 178° |
| 2026-05-04 17:36 | 22.86662 | 5.43687 | 37134 ft | 482 kts | 178° |
| 2026-05-04 17:37 | 22.80057 | 5.45134 | 37126 ft | 490 kts | 167° |
| 2026-05-04 17:37 | 22.73631 | 5.47694 | 37128 ft | 494 kts | 164° |
| 2026-05-04 17:38 | 22.67236 | 5.50492 | 37077 ft | 494 kts | 163° |
| 2026-05-04 17:38 | 22.60868 | 5.53314 | 37002 ft | 494 kts | 163° |
| 2026-05-04 17:39 | 22.51348 | 5.57486 | 36901 ft | 493 kts | 164° |
| 2026-05-04 17:39 | 22.44970 | 5.60262 | 36847 ft | 493 kts | 164° |
| 2026-05-04 17:40 | 22.38601 | 5.63030 | 36843 ft | 493 kts | 164° |
| 2026-05-04 17:40 | 22.32232 | 5.65797 | 36829 ft | 493 kts | 164° |
| 2026-05-04 17:41 | 22.25874 | 5.68556 | 36831 ft | 492 kts | 164° |
| 2026-05-04 17:41 | 22.19559 | 5.71293 | 36834 ft | 492 kts | 164° |
| 2026-05-04 17:42 | 22.13182 | 5.74053 | 36822 ft | 493 kts | 164° |
| 2026-05-04 17:42 | 22.06806 | 5.76811 | 36815 ft | 493 kts | 164° |
| 2026-05-04 17:43 | 22.00425 | 5.79569 | 36807 ft | 493 kts | 164° |
| 2026-05-04 17:43 | 21.94047 | 5.82324 | 37051 ft | 493 kts | 164° |
| 2026-05-04 17:44 | 21.90866 | 5.83697 | 37242 ft | 492 kts | 164° |
| 2026-05-04 17:44 | 21.87734 | 5.85049 | 37430 ft | 491 kts | 164° |
| 2026-05-04 17:44 | 21.84594 | 5.86403 | 37603 ft | 490 kts | 164° |
| 2026-05-04 17:44 | 21.81468 | 5.87750 | 37781 ft | 489 kts | 165° |
| 2026-05-04 17:45 | 21.78303 | 5.89114 | 37928 ft | 488 kts | 165° |
| 2026-05-04 17:45 | 21.75165 | 5.90464 | 38088 ft | 487 kts | 165° |
| 2026-05-04 17:45 | 21.72014 | 5.91820 | 38238 ft | 487 kts | 165° |
| 2026-05-04 17:45 | 21.68872 | 5.93171 | 38378 ft | 486 kts | 165° |
| 2026-05-04 17:46 | 21.65733 | 5.94521 | 38514 ft | 485 kts | 165° |
| 2026-05-04 17:46 | 21.62595 | 5.95869 | 38624 ft | 484 kts | 165° |
| 2026-05-04 17:46 | 21.56333 | 5.98557 | 38780 ft | 485 kts | 165° |
| 2026-05-04 17:47 | 21.51117 | 6.00793 | 38785 ft | 485 kts | 165° |
| 2026-05-04 17:47 | 21.43830 | 6.03917 | 38786 ft | 485 kts | 165° |
| 2026-05-04 17:48 | 21.38623 | 6.06147 | 38787 ft | 484 kts | 165° |
| 2026-05-04 17:48 | 21.31322 | 6.09270 | 38782 ft | 484 kts | 165° |
| 2026-05-04 17:49 | 21.26087 | 6.11508 | 38784 ft | 484 kts | 165° |
| 2026-05-04 17:49 | 21.19863 | 6.14166 | 38785 ft | 484 kts | 165° |
| 2026-05-04 17:50 | 21.13601 | 6.16838 | 38780 ft | 484 kts | 165° |
| 2026-05-04 17:50 | 21.07333 | 6.19510 | 38780 ft | 484 kts | 165° |
| 2026-05-04 17:51 | 21.01069 | 6.22177 | 38771 ft | 484 kts | 165° |
| 2026-05-04 17:51 | 20.94848 | 6.24825 | 38772 ft | 484 kts | 165° |
| 2026-05-04 17:52 | 20.88593 | 6.27484 | 38770 ft | 483 kts | 165° |
| 2026-05-04 17:52 | 20.82338 | 6.30140 | 38770 ft | 483 kts | 165° |
| 2026-05-04 17:53 | 20.76084 | 6.32794 | 38770 ft | 483 kts | 165° |
| 2026-05-04 17:53 | 20.69819 | 6.35450 | 38771 ft | 483 kts | 165° |
| 2026-05-04 17:54 | 20.63604 | 6.38083 | 38772 ft | 483 kts | 165° |
| 2026-05-04 17:54 | 20.57355 | 6.40728 | 38762 ft | 483 kts | 165° |
| 2026-05-04 17:55 | 20.51109 | 6.43369 | 38765 ft | 483 kts | 165° |
| 2026-05-04 17:55 | 20.44854 | 6.46012 | 38764 ft | 483 kts | 165° |
| 2026-05-04 17:56 | 20.38641 | 6.48634 | 38767 ft | 483 kts | 165° |
| 2026-05-04 17:56 | 20.32388 | 6.51271 | 38757 ft | 483 kts | 165° |
| 2026-05-04 17:57 | 20.26133 | 6.53907 | 38757 ft | 483 kts | 165° |
| 2026-05-04 17:57 | 20.19917 | 6.56524 | 38758 ft | 483 kts | 165° |
| 2026-05-04 17:58 | 20.13531 | 6.58345 | 38445 ft | 467 kts | 181° |
| 2026-05-04 17:58 | 20.10323 | 6.58454 | 38169 ft | 456 kts | 191° |
| 2026-05-04 17:58 | 20.07204 | 6.57998 | 37901 ft | 448 kts | 200° |
| 2026-05-04 17:59 | 20.04251 | 6.57076 | 37635 ft | 444 kts | 205° |
| 2026-05-04 17:59 | 20.01337 | 6.55983 | 37364 ft | 444 kts | 207° |
| 2026-05-04 18:00 | 19.92684 | 6.52427 | 37390 ft | 445 kts | 207° |
| 2026-05-04 18:00 | 19.89859 | 6.51264 | 37534 ft | 445 kts | 207° |
| 2026-05-04 18:00 | 19.87012 | 6.50104 | 37698 ft | 444 kts | 207° |
| 2026-05-04 18:01 | 19.81218 | 6.47768 | 37754 ft | 444 kts | 207° |
| 2026-05-04 18:01 | 19.75433 | 6.45453 | 37755 ft | 444 kts | 207° |
| 2026-05-04 18:02 | 19.66761 | 6.41985 | 37743 ft | 444 kts | 207° |
| 2026-05-04 18:02 | 19.61016 | 6.39688 | 37754 ft | 444 kts | 207° |
| 2026-05-04 18:03 | 19.55238 | 6.37379 | 37754 ft | 443 kts | 207° |
| 2026-05-04 18:03 | 19.49456 | 6.35070 | 37752 ft | 443 kts | 207° |
| 2026-05-04 18:04 | 19.43676 | 6.32764 | 37754 ft | 443 kts | 207° |
| 2026-05-04 18:05 | 19.35038 | 6.29321 | 37733 ft | 443 kts | 207° |
| 2026-05-04 18:05 | 19.29257 | 6.27020 | 37748 ft | 443 kts | 207° |
| 2026-05-04 18:06 | 19.20597 | 6.23574 | 37744 ft | 443 kts | 207° |
| 2026-05-04 18:06 | 19.14818 | 6.21277 | 37752 ft | 443 kts | 207° |
| 2026-05-04 18:07 | 19.09077 | 6.18997 | 37747 ft | 443 kts | 207° |
| 2026-05-04 18:07 | 19.03296 | 6.16703 | 37745 ft | 443 kts | 207° |
| 2026-05-04 18:08 | 18.97534 | 6.14418 | 37749 ft | 443 kts | 207° |
| 2026-05-04 18:08 | 18.91765 | 6.12132 | 37749 ft | 443 kts | 207° |
| 2026-05-04 18:09 | 18.80211 | 6.07558 | 37746 ft | 443 kts | 207° |
| 2026-05-04 18:10 | 18.74436 | 6.05274 | 37744 ft | 444 kts | 207° |
| 2026-05-04 18:10 | 18.68706 | 6.03011 | 37743 ft | 444 kts | 207° |
| 2026-05-04 18:11 | 18.62906 | 6.00720 | 37745 ft | 445 kts | 207° |
| 2026-05-04 18:11 | 18.57175 | 5.98459 | 37743 ft | 446 kts | 207° |
| 2026-05-04 18:12 | 18.51384 | 5.96177 | 37746 ft | 446 kts | 207° |
| 2026-05-04 18:12 | 18.45613 | 5.93904 | 37746 ft | 446 kts | 207° |
| 2026-05-04 18:13 | 18.39794 | 5.91613 | 37743 ft | 446 kts | 207° |
| 2026-05-04 18:14 | 18.31056 | 5.88176 | 37737 ft | 447 kts | 206° |
| 2026-05-04 18:14 | 18.25247 | 5.85891 | 37741 ft | 449 kts | 206° |
| 2026-05-04 18:15 | 18.13525 | 5.81292 | 37740 ft | 449 kts | 206° |
| 2026-05-04 18:16 | 18.07662 | 5.78993 | 37742 ft | 449 kts | 206° |
| 2026-05-04 18:16 | 18.01799 | 5.76696 | 37741 ft | 449 kts | 206° |
| 2026-05-04 18:17 | 17.93001 | 5.73251 | 37741 ft | 449 kts | 206° |
| 2026-05-04 18:18 | 17.84239 | 5.69837 | 37739 ft | 450 kts | 205° |
| 2026-05-04 18:18 | 17.78151 | 5.68105 | 37740 ft | 454 kts | 199° |
| 2026-05-04 18:19 | 17.68872 | 5.65899 | 37741 ft | 456 kts | 198° |
| 2026-05-04 18:19 | 17.62718 | 5.64466 | 37737 ft | 457 kts | 198° |
| 2026-05-04 18:20 | 17.56486 | 5.63005 | 37745 ft | 458 kts | 198° |
| 2026-05-04 18:20 | 17.50255 | 5.61543 | 37739 ft | 458 kts | 198° |
| 2026-05-04 18:21 | 17.44026 | 5.60075 | 37742 ft | 458 kts | 198° |
| 2026-05-04 18:21 | 17.37802 | 5.58608 | 37745 ft | 458 kts | 198° |
| 2026-05-04 18:22 | 17.31610 | 5.57150 | 37729 ft | 458 kts | 198° |
| 2026-05-04 18:22 | 17.25364 | 5.55684 | 37742 ft | 461 kts | 198° |
| 2026-05-04 18:23 | 17.19092 | 5.54212 | 37744 ft | 461 kts | 198° |
| 2026-05-04 18:23 | 17.12826 | 5.52742 | 37744 ft | 461 kts | 198° |
| 2026-05-04 18:24 | 17.06566 | 5.51275 | 37744 ft | 461 kts | 198° |
| 2026-05-04 18:24 | 17.00302 | 5.49808 | 37743 ft | 461 kts | 198° |
| 2026-05-04 18:25 | 16.94035 | 5.48341 | 37740 ft | 462 kts | 198° |
| 2026-05-04 18:25 | 16.87797 | 5.46881 | 37741 ft | 462 kts | 198° |
| 2026-05-04 18:26 | 16.81511 | 5.45408 | 37743 ft | 462 kts | 198° |
| 2026-05-04 18:26 | 16.75236 | 5.43940 | 37744 ft | 462 kts | 198° |
| 2026-05-04 18:27 | 16.68949 | 5.42474 | 37741 ft | 462 kts | 198° |
| 2026-05-04 18:27 | 16.62665 | 5.41017 | 37718 ft | 462 kts | 197° |
| 2026-05-04 18:28 | 16.56419 | 5.39596 | 37745 ft | 463 kts | 197° |
| 2026-05-04 18:28 | 16.50119 | 5.38155 | 37742 ft | 463 kts | 197° |
| 2026-05-04 18:29 | 16.43827 | 5.36703 | 37744 ft | 463 kts | 197° |
| 2026-05-04 18:29 | 16.37541 | 5.35244 | 37750 ft | 463 kts | 197° |
| 2026-05-04 18:30 | 16.28101 | 5.33050 | 37732 ft | 463 kts | 197° |
| 2026-05-04 18:31 | 16.21787 | 5.31581 | 37738 ft | 466 kts | 197° |
| 2026-05-04 18:31 | 16.15473 | 5.30116 | 37751 ft | 467 kts | 196° |
| 2026-05-04 18:32 | 16.09117 | 5.28646 | 37746 ft | 467 kts | 197° |
| 2026-05-04 18:32 | 16.02783 | 5.27178 | 37744 ft | 467 kts | 197° |
| 2026-05-04 18:33 | 15.96483 | 5.25718 | 37753 ft | 467 kts | 197° |
| 2026-05-04 18:33 | 15.90125 | 5.24248 | 37762 ft | 468 kts | 197° |
| 2026-05-04 18:34 | 15.83730 | 5.22768 | 37766 ft | 471 kts | 197° |
| 2026-05-04 18:34 | 15.77322 | 5.21285 | 37769 ft | 471 kts | 197° |
| 2026-05-04 18:35 | 15.70950 | 5.19811 | 37763 ft | 471 kts | 197° |
| 2026-05-04 18:35 | 15.65616 | 5.18580 | 37779 ft | 471 kts | 197° |
| 2026-05-04 18:36 | 15.59211 | 5.17103 | 37767 ft | 471 kts | 197° |
| 2026-05-04 18:36 | 15.52791 | 5.15622 | 37766 ft | 472 kts | 196° |
| 2026-05-04 18:37 | 15.46364 | 5.14140 | 37770 ft | 473 kts | 196° |
| 2026-05-04 18:37 | 15.39940 | 5.12660 | 37780 ft | 473 kts | 196° |
| 2026-05-04 18:38 | 15.33557 | 5.11191 | 37778 ft | 473 kts | 196° |
| 2026-05-04 18:38 | 15.27125 | 5.09712 | 37775 ft | 473 kts | 196° |
| 2026-05-04 18:39 | 15.20692 | 5.08240 | 37778 ft | 474 kts | 196° |
| 2026-05-04 18:39 | 15.14239 | 5.06758 | 37781 ft | 476 kts | 196° |
| 2026-05-04 18:40 | 15.07759 | 5.05270 | 37791 ft | 476 kts | 196° |
| 2026-05-04 18:40 | 15.01281 | 5.03787 | 37793 ft | 477 kts | 196° |
| 2026-05-04 18:41 | 14.94806 | 5.02303 | 37788 ft | 477 kts | 196° |
| 2026-05-04 18:41 | 14.88372 | 5.00830 | 37786 ft | 476 kts | 196° |
| 2026-05-04 18:42 | 14.81894 | 4.99346 | 37785 ft | 477 kts | 196° |
| 2026-05-04 18:42 | 14.75476 | 4.97875 | 39431 ft | 477 kts | 192° |
| 2026-05-04 18:42 | 14.72226 | 4.97128 | 37514 ft | 477 kts | 196° |
| 2026-05-04 18:43 | 14.69021 | 4.96398 | 37681 ft | 466 kts | 197° |
| 2026-05-04 18:43 | 14.62767 | 4.94972 | 37745 ft | 462 kts | 197° |
| 2026-05-04 18:44 | 14.56470 | 4.93529 | 37745 ft | 463 kts | 197° |
| 2026-05-04 18:44 | 14.50170 | 4.92087 | 37738 ft | 464 kts | 197° |
| 2026-05-04 18:45 | 14.43891 | 4.90654 | 37735 ft | 464 kts | 197° |
| 2026-05-04 18:45 | 14.37596 | 4.89220 | 37742 ft | 464 kts | 197° |
| 2026-05-04 18:46 | 14.31286 | 4.87781 | 37742 ft | 464 kts | 197° |
| 2026-05-04 18:46 | 14.24968 | 4.86341 | 37738 ft | 464 kts | 197° |
| 2026-05-04 18:47 | 14.18653 | 4.84905 | 37742 ft | 465 kts | 197° |
| 2026-05-04 18:47 | 14.12372 | 4.83476 | 37741 ft | 464 kts | 197° |
| 2026-05-04 18:48 | 14.06138 | 4.82059 | 37742 ft | 464 kts | 197° |
| 2026-05-04 18:48 | 13.99861 | 4.80630 | 37751 ft | 464 kts | 197° |
| 2026-05-04 18:49 | 13.93568 | 4.79201 | 37751 ft | 464 kts | 197° |
| 2026-05-04 18:49 | 13.87254 | 4.77769 | 37751 ft | 464 kts | 197° |
| 2026-05-04 18:50 | 13.80983 | 4.76336 | 37734 ft | 464 kts | 198° |
| 2026-05-04 18:50 | 13.74697 | 4.74856 | 37754 ft | 463 kts | 198° |
| 2026-05-04 18:51 | 13.68411 | 4.73392 | 37758 ft | 463 kts | 198° |
| 2026-05-04 18:51 | 13.62119 | 4.71948 | 37757 ft | 463 kts | 197° |
| 2026-05-04 18:52 | 13.55827 | 4.70517 | 37763 ft | 463 kts | 197° |
| 2026-05-04 18:52 | 13.49558 | 4.69095 | 37761 ft | 463 kts | 197° |
| 2026-05-04 18:53 | 13.43268 | 4.67669 | 37764 ft | 464 kts | 197° |
| 2026-05-04 18:53 | 13.36938 | 4.66234 | 37768 ft | 466 kts | 197° |
| 2026-05-04 18:54 | 13.30594 | 4.64796 | 37774 ft | 466 kts | 197° |
| 2026-05-04 18:54 | 13.24249 | 4.63359 | 37771 ft | 466 kts | 197° |
| 2026-05-04 18:55 | 13.17950 | 4.61933 | 37771 ft | 467 kts | 197° |
| 2026-05-04 18:55 | 13.08428 | 4.59777 | 37765 ft | 467 kts | 197° |
| 2026-05-04 18:56 | 13.02089 | 4.58242 | 37777 ft | 467 kts | 200° |
| 2026-05-04 18:56 | 12.95901 | 4.56371 | 37778 ft | 466 kts | 202° |
| 2026-05-04 18:57 | 12.89695 | 4.54406 | 37777 ft | 466 kts | 202° |
| 2026-05-04 18:57 | 12.83490 | 4.52470 | 37779 ft | 466 kts | 201° |
| 2026-05-04 18:58 | 12.77267 | 4.50562 | 37780 ft | 466 kts | 201° |
| 2026-05-04 18:58 | 12.71076 | 4.48674 | 37775 ft | 466 kts | 201° |
| 2026-05-04 18:59 | 12.64853 | 4.46776 | 37783 ft | 466 kts | 201° |
| 2026-05-04 18:59 | 12.58634 | 4.44877 | 37781 ft | 466 kts | 201° |
| 2026-05-04 19:00 | 12.52421 | 4.42983 | 37782 ft | 466 kts | 201° |
| 2026-05-04 19:00 | 12.46240 | 4.41100 | 37782 ft | 466 kts | 201° |
| 2026-05-04 19:01 | 12.40039 | 4.39214 | 37783 ft | 466 kts | 200° |
| 2026-05-04 19:01 | 12.33837 | 4.37338 | 37785 ft | 467 kts | 199° |
| 2026-05-04 19:02 | 12.27669 | 4.35467 | 37784 ft | 468 kts | 199° |
| 2026-05-04 19:02 | 12.21440 | 4.33574 | 37784 ft | 468 kts | 199° |
| 2026-05-04 19:03 | 12.15222 | 4.31683 | 37783 ft | 467 kts | 199° |
| 2026-05-04 19:03 | 12.09033 | 4.29802 | 37785 ft | 467 kts | 199° |
| 2026-05-04 19:04 | 12.02802 | 4.27909 | 37785 ft | 467 kts | 199° |
| 2026-05-04 19:04 | 11.96565 | 4.26014 | 37789 ft | 468 kts | 199° |
| 2026-05-04 19:05 | 11.90451 | 4.24163 | 37784 ft | 470 kts | 199° |
| 2026-05-04 19:05 | 11.84170 | 4.22265 | 37786 ft | 470 kts | 199° |
| 2026-05-04 19:06 | 11.77913 | 4.20370 | 37784 ft | 470 kts | 199° |
| 2026-05-04 19:06 | 11.71639 | 4.18468 | 37786 ft | 470 kts | 199° |
| 2026-05-04 19:07 | 11.65378 | 4.16572 | 37783 ft | 469 kts | 199° |
| 2026-05-04 19:07 | 11.59163 | 4.14691 | 37785 ft | 468 kts | 198° |
| 2026-05-04 19:08 | 11.52918 | 4.12801 | 37783 ft | 468 kts | 198° |
| 2026-05-04 19:08 | 11.46674 | 4.10910 | 37785 ft | 468 kts | 198° |
| 2026-05-04 19:09 | 11.40435 | 4.09022 | 37791 ft | 472 kts | 198° |
| 2026-05-04 19:09 | 11.34128 | 4.07116 | 37790 ft | 476 kts | 198° |
| 2026-05-04 19:10 | 11.27823 | 4.05214 | 37808 ft | 476 kts | 198° |
| 2026-05-04 19:10 | 11.21482 | 4.03301 | 37803 ft | 474 kts | 198° |
| 2026-05-04 19:11 | 11.15172 | 4.01396 | 37798 ft | 473 kts | 198° |
| 2026-05-04 19:11 | 11.08847 | 3.99486 | 37808 ft | 474 kts | 198° |
| 2026-05-04 19:12 | 10.99361 | 3.96628 | 37804 ft | 474 kts | 198° |
| 2026-05-04 19:13 | 10.93038 | 3.94723 | 37813 ft | 474 kts | 198° |
| 2026-05-04 19:13 | 10.86753 | 3.92829 | 37810 ft | 474 kts | 198° |
| 2026-05-04 19:14 | 10.80425 | 3.90921 | 37811 ft | 474 kts | 198° |
| 2026-05-04 19:14 | 10.74125 | 3.89025 | 37815 ft | 474 kts | 198° |
| 2026-05-04 19:15 | 10.67817 | 3.87126 | 37817 ft | 474 kts | 198° |
| 2026-05-04 19:15 | 10.61482 | 3.85221 | 37814 ft | 474 kts | 198° |
| 2026-05-04 19:16 | 10.55163 | 3.83322 | 37813 ft | 474 kts | 198° |
| 2026-05-04 19:16 | 10.48848 | 3.81424 | 37814 ft | 472 kts | 198° |
| 2026-05-04 19:17 | 10.42583 | 3.79543 | 37822 ft | 471 kts | 198° |
| 2026-05-04 19:17 | 10.36300 | 3.77658 | 37815 ft | 470 kts | 198° |
| 2026-05-04 19:18 | 10.30027 | 3.75776 | 37820 ft | 470 kts | 198° |
| 2026-05-04 19:18 | 10.23749 | 3.73893 | 37821 ft | 470 kts | 198° |
| 2026-05-04 19:19 | 10.17482 | 3.72015 | 37812 ft | 470 kts | 198° |
| 2026-05-04 19:19 | 10.11244 | 3.70145 | 37814 ft | 471 kts | 198° |
| 2026-05-04 19:20 | 10.05022 | 3.68282 | 37820 ft | 471 kts | 198° |
| 2026-05-04 19:20 | 9.98883 | 3.66446 | 37827 ft | 471 kts | 198° |
| 2026-05-04 19:21 | 9.92635 | 3.64575 | 37828 ft | 471 kts | 198° |
| 2026-05-04 19:21 | 9.86371 | 3.62699 | 37828 ft | 471 kts | 198° |
| 2026-05-04 19:22 | 9.81150 | 3.61137 | 37834 ft | 471 kts | 198° |
| 2026-05-04 19:22 | 9.73856 | 3.58956 | 37837 ft | 470 kts | 198° |
| 2026-05-04 19:23 | 9.68633 | 3.57395 | 37833 ft | 470 kts | 198° |
| 2026-05-04 19:23 | 9.62347 | 3.55517 | 37837 ft | 470 kts | 198° |
| 2026-05-04 19:24 | 9.56097 | 3.53650 | 37842 ft | 470 kts | 198° |
| 2026-05-04 19:24 | 9.49810 | 3.51810 | 37847 ft | 471 kts | 194° |
| 2026-05-04 19:25 | 9.43300 | 3.50922 | 37837 ft | 472 kts | 186° |
| 2026-05-04 19:25 | 9.36753 | 3.50428 | 37854 ft | 474 kts | 185° |
| 2026-05-04 19:26 | 9.30255 | 3.50013 | 37857 ft | 474 kts | 185° |
| 2026-05-04 19:26 | 9.23672 | 3.49585 | 37853 ft | 474 kts | 185° |
| 2026-05-04 19:27 | 9.17106 | 3.49143 | 37856 ft | 474 kts | 185° |
| 2026-05-04 19:27 | 9.10566 | 3.48697 | 37859 ft | 474 kts | 185° |
| 2026-05-04 19:28 | 9.04024 | 3.48249 | 37863 ft | 473 kts | 185° |
| 2026-05-04 19:28 | 8.97462 | 3.47801 | 37857 ft | 472 kts | 185° |
| 2026-05-04 19:29 | 8.90936 | 3.47356 | 37870 ft | 472 kts | 185° |
| 2026-05-04 19:29 | 8.84423 | 3.46912 | 37872 ft | 472 kts | 185° |
| 2026-05-04 19:30 | 8.77871 | 3.46465 | 37872 ft | 471 kts | 185° |
| 2026-05-04 19:30 | 8.71395 | 3.46024 | 37873 ft | 472 kts | 185° |
| 2026-05-04 19:30 | 8.68101 | 3.45800 | 37492 ft | 477 kts | 185° |
| 2026-05-04 19:31 | 8.64777 | 3.45574 | 36752 ft | 481 kts | 185° |
| 2026-05-04 19:31 | 8.61413 | 3.45345 | 35951 ft | 486 kts | 185° |
| 2026-05-04 19:31 | 8.58020 | 3.45116 | 35192 ft | 491 kts | 185° |
| 2026-05-04 19:31 | 8.54654 | 3.44888 | 34472 ft | 494 kts | 185° |
| 2026-05-04 19:32 | 8.51208 | 3.44660 | 33749 ft | 497 kts | 184° |
| 2026-05-04 19:32 | 8.47819 | 3.44438 | 32935 ft | 500 kts | 184° |
| 2026-05-04 19:32 | 8.44329 | 3.44211 | 32115 ft | 503 kts | 184° |
| 2026-05-04 19:32 | 8.40847 | 3.43985 | 31311 ft | 505 kts | 184° |
| 2026-05-04 19:33 | 8.37326 | 3.43755 | 30494 ft | 508 kts | 184° |
| 2026-05-04 19:33 | 8.33781 | 3.43523 | 29630 ft | 511 kts | 184° |
| 2026-05-04 19:33 | 8.30272 | 3.43289 | 28794 ft | 511 kts | 184° |
| 2026-05-04 19:33 | 8.26737 | 3.43043 | 28153 ft | 507 kts | 184° |
| 2026-05-04 19:34 | 8.23234 | 3.42799 | 27499 ft | 503 kts | 184° |
| 2026-05-04 19:34 | 8.19785 | 3.42561 | 26898 ft | 499 kts | 184° |
| 2026-05-04 19:34 | 8.16340 | 3.42325 | 26276 ft | 495 kts | 184° |
| 2026-05-04 19:34 | 8.12911 | 3.42090 | 25681 ft | 490 kts | 184° |
| 2026-05-04 19:35 | 8.09510 | 3.41858 | 25104 ft | 486 kts | 184° |
| 2026-05-04 19:35 | 8.06143 | 3.41629 | 24508 ft | 483 kts | 184° |
| 2026-05-04 19:35 | 8.02836 | 3.41404 | 23973 ft | 480 kts | 184° |
| 2026-05-04 19:35 | 7.99526 | 3.41179 | 23332 ft | 476 kts | 184° |
| 2026-05-04 19:36 | 7.96232 | 3.40954 | 22690 ft | 472 kts | 184° |
| 2026-05-04 19:36 | 7.92970 | 3.40733 | 22090 ft | 467 kts | 183° |
| 2026-05-04 19:36 | 7.89737 | 3.40512 | 21470 ft | 462 kts | 183° |
| 2026-05-04 19:36 | 7.86534 | 3.40294 | 20883 ft | 458 kts | 182° |
| 2026-05-04 19:37 | 7.83370 | 3.40079 | 20286 ft | 454 kts | 182° |
| 2026-05-04 19:37 | 7.80272 | 3.39869 | 19706 ft | 449 kts | 182° |
| 2026-05-04 19:37 | 7.77176 | 3.39599 | 19161 ft | 445 kts | 184° |
| 2026-05-04 19:37 | 7.74093 | 3.39267 | 18564 ft | 442 kts | 184° |
| 2026-05-04 19:38 | 7.71046 | 3.38930 | 17999 ft | 438 kts | 183° |
| 2026-05-04 19:38 | 7.68057 | 3.38600 | 17362 ft | 434 kts | 183° |
| 2026-05-04 19:38 | 7.65061 | 3.38271 | 16722 ft | 430 kts | 183° |
| 2026-05-04 19:38 | 7.62090 | 3.37946 | 16111 ft | 426 kts | 182° |
| 2026-05-04 19:39 | 7.59148 | 3.37625 | 15510 ft | 422 kts | 182° |
| 2026-05-04 19:39 | 7.56290 | 3.37313 | 14959 ft | 418 kts | 182° |
| 2026-05-04 19:39 | 7.53406 | 3.36998 | 14372 ft | 415 kts | 182° |
| 2026-05-04 19:39 | 7.50574 | 3.36689 | 13782 ft | 411 kts | 181° |
| 2026-05-04 19:40 | 7.47737 | 3.36381 | 13155 ft | 408 kts | 181° |
| 2026-05-04 19:40 | 7.44948 | 3.36076 | 12275 ft | 400 kts | 181° |
| 2026-05-04 19:40 | 7.42180 | 3.35775 | 11561 ft | 395 kts | 181° |
| 2026-05-04 19:40 | 7.39525 | 3.35482 | 11109 ft | 371 kts | 181° |
| 2026-05-04 19:41 | 7.37039 | 3.35207 | 10814 ft | 348 kts | 181° |
| 2026-05-04 19:41 | 7.34717 | 3.34950 | 10632 ft | 324 kts | 181° |
| 2026-05-04 19:41 | 7.32564 | 3.34713 | 10497 ft | 309 kts | 180° |
| 2026-05-04 19:41 | 7.30457 | 3.34485 | 10358 ft | 301 kts | 180° |
| 2026-05-04 19:42 | 7.28391 | 3.34265 | 10108 ft | 298 kts | 180° |
| 2026-05-04 19:42 | 7.26317 | 3.34044 | 9746 ft | 300 kts | 180° |
| 2026-05-04 19:42 | 7.24234 | 3.33822 | 9387 ft | 300 kts | 180° |
| 2026-05-04 19:42 | 7.22159 | 3.33598 | 9061 ft | 299 kts | 181° |
| 2026-05-04 19:43 | 7.20091 | 3.33373 | 8738 ft | 298 kts | 181° |
| 2026-05-04 19:43 | 7.18038 | 3.33151 | 8404 ft | 296 kts | 181° |
| 2026-05-04 19:43 | 7.16019 | 3.32933 | 8080 ft | 295 kts | 182° |
| 2026-05-04 19:43 | 7.13982 | 3.32712 | 7751 ft | 294 kts | 182° |
| 2026-05-04 19:44 | 7.11952 | 3.32490 | 7428 ft | 292 kts | 182° |
| 2026-05-04 19:44 | 7.09937 | 3.32271 | 7101 ft | 290 kts | 182° |
| 2026-05-04 19:44 | 7.07924 | 3.32155 | 6712 ft | 290 kts | 177° |
| 2026-05-04 19:44 | 7.05906 | 3.32166 | 6388 ft | 288 kts | 176° |
| 2026-05-04 19:45 | 7.03912 | 3.32199 | 6052 ft | 286 kts | 176° |
| 2026-05-04 19:45 | 7.01930 | 3.32234 | 5725 ft | 284 kts | 176° |
| 2026-05-04 19:45 | 6.99969 | 3.32268 | 5406 ft | 282 kts | 177° |
| 2026-05-04 19:45 | 6.98014 | 3.32300 | 5100 ft | 279 kts | 177° |
| 2026-05-04 19:46 | 6.96080 | 3.32331 | 4784 ft | 277 kts | 177° |
| 2026-05-04 19:46 | 6.94174 | 3.32363 | 4483 ft | 273 kts | 177° |
| 2026-05-04 19:46 | 6.92317 | 3.32400 | 4274 ft | 267 kts | 177° |
| 2026-05-04 19:46 | 6.90499 | 3.32466 | 4193 ft | 256 kts | 176° |
| 2026-05-04 19:47 | 6.88694 | 3.32516 | 4095 ft | 257 kts | 177° |
| 2026-05-04 19:47 | 6.86912 | 3.32555 | 3980 ft | 260 kts | 178° |
| 2026-05-04 19:47 | 6.85105 | 3.32589 | 3868 ft | 259 kts | 177° |
| 2026-05-04 19:47 | 6.83326 | 3.32614 | 3743 ft | 251 kts | 178° |
| 2026-05-04 19:48 | 6.81612 | 3.32630 | 3612 ft | 243 kts | 178° |
| 2026-05-04 19:48 | 6.79941 | 3.32643 | 3475 ft | 236 kts | 178° |
| 2026-05-04 19:48 | 6.78330 | 3.32656 | 3373 ft | 228 kts | 178° |
| 2026-05-04 19:48 | 6.76769 | 3.32670 | 3262 ft | 220 kts | 178° |
| 2026-05-04 19:49 | 6.75254 | 3.32688 | 3096 ft | 216 kts | 178° |
| 2026-05-04 19:49 | 6.73789 | 3.32707 | 2891 ft | 211 kts | 178° |
| 2026-05-04 19:49 | 6.72344 | 3.32725 | 2603 ft | 202 kts | 178° |
| 2026-05-04 19:49 | 6.70978 | 3.32744 | 2335 ft | 190 kts | 178° |
| 2026-05-04 19:50 | 6.69705 | 3.32759 | 2085 ft | 177 kts | 179° |
| 2026-05-04 19:50 | 6.68514 | 3.32774 | 1869 ft | 166 kts | 179° |
| 2026-05-04 19:50 | 6.67400 | 3.32789 | 1683 ft | 153 kts | 180° |
| 2026-05-04 19:50 | 6.66381 | 3.32804 | 1515 ft | 140 kts | 181° |
| 2026-05-04 19:51 | 6.65423 | 3.32819 | 1298 ft | 135 kts | 179° |
| 2026-05-04 19:51 | 6.64489 | 3.32830 | 1113 ft | 134 kts | 180° |
| 2026-05-04 19:51 | 6.63571 | 3.32829 | 948 ft | 133 kts | 179° |
| 2026-05-04 19:51 | 6.62632 | 3.32832 | 792 ft | 136 kts | 177° |
| 2026-05-04 19:52 | 6.61679 | 3.32867 | 556 ft | 137 kts | 180° |
| 2026-05-04 19:52 | 6.60713 | 3.32867 | 392 ft | 140 kts | 179° |
| 2026-05-04 19:52 | 6.59747 | 3.32881 | 198 ft | 138 kts | 179° |
| 2026-05-04 19:52 | 6.58863 | 3.32893 | 133 ft | 101 kts | 179° |
| 2026-05-04 19:53 | 6.58378 | 3.32901 | 120 ft | 59 kts | 179° |
| 2026-05-04 19:53 | 6.58046 | 3.32905 | 114 ft | 34 kts | 179° |
| 2026-05-04 19:53 | 6.57811 | 3.32873 | 108 ft | 34 kts | 204° |
| 2026-05-04 19:53 | 6.57688 | 3.32803 | 110 ft | 11 kts | 223° |
| 2026-05-04 19:54 | 6.57681 | 3.32734 | 111 ft | 10 kts | 298° |
| 2026-05-04 19:54 | 6.57741 | 3.32707 | 110 ft | 11 kts | 351° |
| 2026-05-04 19:54 | 6.57852 | 3.32705 | 115 ft | 20 kts | 359° |
| 2026-05-04 19:54 | 6.57994 | 3.32700 | 117 ft | 18 kts | 358° |
| 2026-05-04 19:55 | 6.58066 | 3.32662 | 112 ft | 15 kts | 297° |
| 2026-05-04 19:55 | 6.58109 | 3.32551 | 113 ft | 18 kts | 291° |
| 2026-05-04 19:55 | 6.58157 | 3.32429 | 111 ft | 20 kts | 291° |
| 2026-05-04 19:55 | 6.58207 | 3.32302 | 106 ft | 18 kts | 291° |
| 2026-05-04 19:56 | 6.58193 | 3.32208 | 101 ft | 16 kts | 218° |
| 2026-05-04 19:56 | 6.58099 | 3.32167 | 99 ft | 11 kts | 202° |
| 2026-05-04 19:56 | 6.58061 | 3.32152 | 101 ft | 4 kts | 201° |
| 2026-05-04 19:56 | 6.58021 | 3.32136 | 100 ft | 7 kts | 200° |
| 2026-05-04 19:57 | 6.57992 | 3.32131 | 100 ft | 2 kts | 171° |
| 2026-05-04 19:57 | 6.57972 | 3.32158 | 98 ft | 5 kts | 112° |
| 2026-05-04 19:57 | 6.57964 | 3.32176 | 101 ft | 2 kts | 113° |
| 2026-05-04 19:57 | 6.57963 | 3.32179 | 101 ft | 2 kts | 113° |
| 2026-05-04 19:58 | 6.57959 | 3.32188 | 103 ft | 1 kts | 112° |
| 2026-05-04 19:58 | 6.57958 | 3.32191 | 104 ft | 0 kts | 112° |
| 2026-05-04 20:03 | 6.57958 | 3.32190 | 102 ft | 0 kts | 112° |